sensor_id;sensor_type;location;lat;lon;timestamp;temperature;humidity
30973;DHT22;25423;45.624;13.790;2023-04-24T00:00:01;16.50;99.90
30973;DHT22;25423;45.624;13.790;2023-04-24T00:02:26;16.50;99.90
30973;DHT22;25423;45.624;13.790;2023-04-24T00:04:52;16.50;99.90
30973;DHT22;25423;45.624;13.790;2023-04-24T00:07:18;16.50;99.90
30973;DHT22;25423;45.624;13.790;2023-04-24T00:09:45;16.50;99.90
30973;DHT22;25423;45.624;13.790;2023-04-24T00:12:11;16.50;99.90
30973;DHT22;25423;45.624;13.790;2023-04-24T00:14:36;16.50;99.90
30973;DHT22;25423;45.624;13.790;2023-04-24T00:17:05;16.50;99.90
30973;DHT22;25423;45.624;13.790;2023-04-24T00:19:30;16.60;99.90
30973;DHT22;25423;45.624;13.790;2023-04-24T00:21:56;16.50;99.90
30973;DHT22;25423;45.624;13.790;2023-04-24T00:24:21;16.50;99.90
30973;DHT22;25423;45.624;13.790;2023-04-24T00:26:47;16.50;99.90
30973;DHT22;25423;45.624;13.790;2023-04-24T00:29:13;16.50;99.90
30973;DHT22;25423;45.624;13.790;2023-04-24T00:31:38;16.40;99.90
30973;DHT22;25423;45.624;13.790;2023-04-24T00:34:05;16.40;99.90
30973;DHT22;25423;45.624;13.790;2023-04-24T00:36:30;16.40;99.90
30973;DHT22;25423;45.624;13.790;2023-04-24T00:38:57;16.40;99.90
30973;DHT22;25423;45.624;13.790;2023-04-24T00:41:24;16.40;99.90
30973;DHT22;25423;45.624;13.790;2023-04-24T00:43:50;16.40;99.90
30973;DHT22;25423;45.624;13.790;2023-04-24T00:46:16;16.50;99.90
30973;DHT22;25423;45.624;13.790;2023-04-24T00:48:41;16.40;99.90
30973;DHT22;25423;45.624;13.790;2023-04-24T00:51:08;16.40;99.90
30973;DHT22;25423;45.624;13.790;2023-04-24T00:53:34;16.40;99.90
30973;DHT22;25423;45.624;13.790;2023-04-24T00:56:00;16.30;99.90
30973;DHT22;25423;45.624;13.790;2023-04-24T00:58:25;16.30;99.90
30973;DHT22;25423;45.624;13.790;2023-04-24T01:00:52;16.40;99.90
30973;DHT22;25423;45.624;13.790;2023-04-24T01:03:22;16.30;99.90
30973;DHT22;25423;45.624;13.790;2023-04-24T01:05:48;16.30;99.90
30973;DHT22;25423;45.624;13.790;2023-04-24T01:08:14;16.30;99.90
30973;DHT22;25423;45.624;13.790;2023-04-24T01:10:40;16.30;99.90
30973;DHT22;25423;45.624;13.790;2023-04-24T01:13:07;16.30;99.90
30973;DHT22;25423;45.624;13.790;2023-04-24T01:15:34;16.20;99.90
30973;DHT22;25423;45.624;13.790;2023-04-24T01:17:59;16.20;99.90
30973;DHT22;25423;45.624;13.790;2023-04-24T01:20:25;16.20;99.90
30973;DHT22;25423;45.624;13.790;2023-04-24T01:22:51;16.20;99.90
30973;DHT22;25423;45.624;13.790;2023-04-24T01:25:18;16.20;99.90
30973;DHT22;25423;45.624;13.790;2023-04-24T01:27:43;16.20;99.90
30973;DHT22;25423;45.624;13.790;2023-04-24T01:30:09;16.20;99.90
30973;DHT22;25423;45.624;13.790;2023-04-24T01:32:35;16.20;99.90
30973;DHT22;25423;45.624;13.790;2023-04-24T01:35:01;16.20;99.90
30973;DHT22;25423;45.624;13.790;2023-04-24T01:37:27;16.30;99.90
30973;DHT22;25423;45.624;13.790;2023-04-24T01:39:53;16.30;99.90
30973;DHT22;25423;45.624;13.790;2023-04-24T01:42:18;16.30;99.90
30973;DHT22;25423;45.624;13.790;2023-04-24T01:44:44;16.30;99.90
30973;DHT22;25423;45.624;13.790;2023-04-24T01:47:10;16.30;99.90
30973;DHT22;25423;45.624;13.790;2023-04-24T01:49:37;16.30;99.90
30973;DHT22;25423;45.624;13.790;2023-04-24T01:52:03;16.30;99.90
30973;DHT22;25423;45.624;13.790;2023-04-24T01:54:28;16.30;99.90
30973;DHT22;25423;45.624;13.790;2023-04-24T01:56:54;16.30;99.90
30973;DHT22;25423;45.624;13.790;2023-04-24T01:59:20;16.40;99.90
30973;DHT22;25423;45.624;13.790;2023-04-24T02:01:46;16.30;99.90
30973;DHT22;25423;45.624;13.790;2023-04-24T02:04:11;16.30;99.90
30973;DHT22;25423;45.624;13.790;2023-04-24T02:06:37;16.40;99.90
30973;DHT22;25423;45.624;13.790;2023-04-24T02:09:02;16.30;99.90
30973;DHT22;25423;45.624;13.790;2023-04-24T02:11:28;16.30;99.90
30973;DHT22;25423;45.624;13.790;2023-04-24T02:13:54;16.40;99.90
30973;DHT22;25423;45.624;13.790;2023-04-24T02:16:20;16.40;99.90
30973;DHT22;25423;45.624;13.790;2023-04-24T02:18:46;16.40;99.90
30973;DHT22;25423;45.624;13.790;2023-04-24T02:21:12;16.40;99.90
30973;DHT22;25423;45.624;13.790;2023-04-24T02:23:37;16.40;99.90
30973;DHT22;25423;45.624;13.790;2023-04-24T02:26:03;16.40;99.90
30973;DHT22;25423;45.624;13.790;2023-04-24T02:28:28;16.40;99.90
30973;DHT22;25423;45.624;13.790;2023-04-24T02:30:54;16.30;99.90
30973;DHT22;25423;45.624;13.790;2023-04-24T02:33:20;16.30;99.90
30973;DHT22;25423;45.624;13.790;2023-04-24T02:35:46;16.40;99.90
30973;DHT22;25423;45.624;13.790;2023-04-24T02:38:11;16.40;99.90
30973;DHT22;25423;45.624;13.790;2023-04-24T02:40:37;16.30;99.90
30973;DHT22;25423;45.624;13.790;2023-04-24T02:43:03;16.40;99.90
30973;DHT22;25423;45.624;13.790;2023-04-24T02:45:28;16.30;99.90
30973;DHT22;25423;45.624;13.790;2023-04-24T02:47:54;16.30;99.90
30973;DHT22;25423;45.624;13.790;2023-04-24T02:50:20;16.30;99.90
30973;DHT22;25423;45.624;13.790;2023-04-24T02:52:45;16.30;99.90
30973;DHT22;25423;45.624;13.790;2023-04-24T02:55:11;16.20;99.90
30973;DHT22;25423;45.624;13.790;2023-04-24T02:57:36;16.20;99.90
30973;DHT22;25423;45.624;13.790;2023-04-24T03:00:02;16.20;99.90
30973;DHT22;25423;45.624;13.790;2023-04-24T03:02:28;16.20;99.90
30973;DHT22;25423;45.624;13.790;2023-04-24T03:04:54;16.10;99.90
30973;DHT22;25423;45.624;13.790;2023-04-24T03:07:20;16.10;99.90
30973;DHT22;25423;45.624;13.790;2023-04-24T03:09:46;16.20;99.90
30973;DHT22;25423;45.624;13.790;2023-04-24T03:12:12;16.20;99.90
30973;DHT22;25423;45.624;13.790;2023-04-24T03:14:38;16.10;99.90
30973;DHT22;25423;45.624;13.790;2023-04-24T03:17:04;16.20;99.90
30973;DHT22;25423;45.624;13.790;2023-04-24T03:19:29;16.10;99.90
30973;DHT22;25423;45.624;13.790;2023-04-24T03:21:55;16.10;99.90
30973;DHT22;25423;45.624;13.790;2023-04-24T03:24:21;16.10;99.90
30973;DHT22;25423;45.624;13.790;2023-04-24T03:26:47;16.10;99.90
30973;DHT22;25423;45.624;13.790;2023-04-24T03:29:13;16.10;99.90
30973;DHT22;25423;45.624;13.790;2023-04-24T03:31:39;16.00;99.90
30973;DHT22;25423;45.624;13.790;2023-04-24T03:34:04;16.10;99.90
30973;DHT22;25423;45.624;13.790;2023-04-24T03:36:30;16.00;99.90
30973;DHT22;25423;45.624;13.790;2023-04-24T03:38:56;16.00;99.90
30973;DHT22;25423;45.624;13.790;2023-04-24T03:41:21;16.00;99.90
30973;DHT22;25423;45.624;13.790;2023-04-24T03:43:48;15.90;99.90
30973;DHT22;25423;45.624;13.790;2023-04-24T03:46:13;15.90;99.90
30973;DHT22;25423;45.624;13.790;2023-04-24T03:48:39;15.90;99.90
30973;DHT22;25423;45.624;13.790;2023-04-24T03:51:04;15.80;99.90
30973;DHT22;25423;45.624;13.790;2023-04-24T03:53:30;15.90;99.90
30973;DHT22;25423;45.624;13.790;2023-04-24T03:55:56;15.90;99.90
30973;DHT22;25423;45.624;13.790;2023-04-24T03:58:21;15.90;99.90
30973;DHT22;25423;45.624;13.790;2023-04-24T04:00:47;15.80;99.90
30973;DHT22;25423;45.624;13.790;2023-04-24T04:03:13;15.80;99.90
30973;DHT22;25423;45.624;13.790;2023-04-24T04:05:39;15.90;99.90
30973;DHT22;25423;45.624;13.790;2023-04-24T04:08:05;15.90;99.90
30973;DHT22;25423;45.624;13.790;2023-04-24T04:10:31;15.90;99.90
30973;DHT22;25423;45.624;13.790;2023-04-24T04:12:56;15.90;99.90
30973;DHT22;25423;45.624;13.790;2023-04-24T04:15:22;15.90;99.90
30973;DHT22;25423;45.624;13.790;2023-04-24T04:17:48;15.90;99.90
30973;DHT22;25423;45.624;13.790;2023-04-24T04:20:13;15.90;99.90
30973;DHT22;25423;45.624;13.790;2023-04-24T04:22:39;16.00;99.90
30973;DHT22;25423;45.624;13.790;2023-04-24T04:25:05;15.90;99.90
30973;DHT22;25423;45.624;13.790;2023-04-24T04:27:31;15.90;99.90
30973;DHT22;25423;45.624;13.790;2023-04-24T04:29:58;15.90;99.90
30973;DHT22;25423;45.624;13.790;2023-04-24T04:32:24;15.90;99.90
30973;DHT22;25423;45.624;13.790;2023-04-24T04:34:52;15.90;99.90
30973;DHT22;25423;45.624;13.790;2023-04-24T04:37:18;15.90;99.90
30973;DHT22;25423;45.624;13.790;2023-04-24T04:39:44;15.90;99.90
30973;DHT22;25423;45.624;13.790;2023-04-24T04:42:10;15.90;99.90
30973;DHT22;25423;45.624;13.790;2023-04-24T04:44:35;15.90;99.90
30973;DHT22;25423;45.624;13.790;2023-04-24T04:47:01;15.90;99.90
30973;DHT22;25423;45.624;13.790;2023-04-24T04:49:31;15.90;99.90
30973;DHT22;25423;45.624;13.790;2023-04-24T04:51:56;15.80;99.90
30973;DHT22;25423;45.624;13.790;2023-04-24T04:54:22;15.90;99.90
30973;DHT22;25423;45.624;13.790;2023-04-24T04:56:51;15.90;99.90
30973;DHT22;25423;45.624;13.790;2023-04-24T04:59:17;15.80;99.90
30973;DHT22;25423;45.624;13.790;2023-04-24T05:01:43;15.80;99.90
30973;DHT22;25423;45.624;13.790;2023-04-24T05:04:08;15.90;99.90
30973;DHT22;25423;45.624;13.790;2023-04-24T05:06:34;15.80;99.90
30973;DHT22;25423;45.624;13.790;2023-04-24T05:09:00;15.80;99.90
30973;DHT22;25423;45.624;13.790;2023-04-24T05:11:26;15.70;99.90
30973;DHT22;25423;45.624;13.790;2023-04-24T05:13:51;15.80;99.90
30973;DHT22;25423;45.624;13.790;2023-04-24T05:16:17;15.70;99.90
30973;DHT22;25423;45.624;13.790;2023-04-24T05:18:42;15.80;99.90
30973;DHT22;25423;45.624;13.790;2023-04-24T05:21:08;15.80;99.90
30973;DHT22;25423;45.624;13.790;2023-04-24T05:23:34;15.80;99.90
30973;DHT22;25423;45.624;13.790;2023-04-24T05:25:59;15.80;99.90
30973;DHT22;25423;45.624;13.790;2023-04-24T05:28:25;15.80;99.90
30973;DHT22;25423;45.624;13.790;2023-04-24T05:30:54;15.90;99.90
30973;DHT22;25423;45.624;13.790;2023-04-24T05:33:21;15.80;99.90
30973;DHT22;25423;45.624;13.790;2023-04-24T05:35:47;15.80;99.90
30973;DHT22;25423;45.624;13.790;2023-04-24T05:38:13;15.80;99.90
30973;DHT22;25423;45.624;13.790;2023-04-24T05:40:39;15.80;99.90
30973;DHT22;25423;45.624;13.790;2023-04-24T05:43:05;15.80;99.90
30973;DHT22;25423;45.624;13.790;2023-04-24T05:45:30;15.80;99.90
30973;DHT22;25423;45.624;13.790;2023-04-24T05:47:57;15.80;99.90
30973;DHT22;25423;45.624;13.790;2023-04-24T05:50:22;15.80;99.90
30973;DHT22;25423;45.624;13.790;2023-04-24T05:52:48;15.80;99.90
30973;DHT22;25423;45.624;13.790;2023-04-24T05:55:13;15.80;99.90
30973;DHT22;25423;45.624;13.790;2023-04-24T05:57:39;15.90;99.90
30973;DHT22;25423;45.624;13.790;2023-04-24T06:00:05;15.90;99.90
30973;DHT22;25423;45.624;13.790;2023-04-24T06:02:31;15.90;99.90
30973;DHT22;25423;45.624;13.790;2023-04-24T06:05:01;15.90;99.90
30973;DHT22;25423;45.624;13.790;2023-04-24T06:07:26;15.90;99.90
30973;DHT22;25423;45.624;13.790;2023-04-24T06:09:52;15.90;99.90
30973;DHT22;25423;45.624;13.790;2023-04-24T06:12:18;15.90;99.90
30973;DHT22;25423;45.624;13.790;2023-04-24T06:14:43;15.80;99.90
30973;DHT22;25423;45.624;13.790;2023-04-24T06:17:09;15.80;99.90
30973;DHT22;25423;45.624;13.790;2023-04-24T06:19:34;15.90;99.90
30973;DHT22;25423;45.624;13.790;2023-04-24T06:22:00;15.80;99.90
30973;DHT22;25423;45.624;13.790;2023-04-24T06:24:29;15.80;99.90
30973;DHT22;25423;45.624;13.790;2023-04-24T06:26:54;15.90;99.90
30973;DHT22;25423;45.624;13.790;2023-04-24T06:29:22;15.90;99.90
30973;DHT22;25423;45.624;13.790;2023-04-24T06:31:47;15.90;99.90
30973;DHT22;25423;45.624;13.790;2023-04-24T06:34:13;15.70;99.90
30973;DHT22;25423;45.624;13.790;2023-04-24T06:36:39;15.60;99.90
30973;DHT22;25423;45.624;13.790;2023-04-24T06:39:04;15.50;99.90
30973;DHT22;25423;45.624;13.790;2023-04-24T06:41:30;15.40;99.90
30973;DHT22;25423;45.624;13.790;2023-04-24T06:43:56;15.40;99.90
30973;DHT22;25423;45.624;13.790;2023-04-24T06:46:21;15.40;99.90
30973;DHT22;25423;45.624;13.790;2023-04-24T06:48:54;15.30;99.90
30973;DHT22;25423;45.624;13.790;2023-04-24T06:51:23;15.20;99.90
30973;DHT22;25423;45.624;13.790;2023-04-24T06:53:49;15.10;99.90
30973;DHT22;25423;45.624;13.790;2023-04-24T06:56:15;15.00;99.90
30973;DHT22;25423;45.624;13.790;2023-04-24T06:58:41;15.00;99.90
30973;DHT22;25423;45.624;13.790;2023-04-24T07:01:07;14.90;99.90
30973;DHT22;25423;45.624;13.790;2023-04-24T07:03:32;15.00;99.90
30973;DHT22;25423;45.624;13.790;2023-04-24T07:05:58;15.10;99.90
30973;DHT22;25423;45.624;13.790;2023-04-24T07:08:24;15.10;99.90
30973;DHT22;25423;45.624;13.790;2023-04-24T07:10:50;15.10;99.90
30973;DHT22;25423;45.624;13.790;2023-04-24T07:13:16;15.20;99.90
30973;DHT22;25423;45.624;13.790;2023-04-24T07:15:42;15.20;99.90
30973;DHT22;25423;45.624;13.790;2023-04-24T07:18:08;15.20;99.90
30973;DHT22;25423;45.624;13.790;2023-04-24T07:20:34;15.20;99.90
30973;DHT22;25423;45.624;13.790;2023-04-24T07:23:00;15.40;99.90
30973;DHT22;25423;45.624;13.790;2023-04-24T07:25:26;15.40;99.90
30973;DHT22;25423;45.624;13.790;2023-04-24T07:27:53;15.40;99.90
30973;DHT22;25423;45.624;13.790;2023-04-24T07:30:18;15.40;99.90
30973;DHT22;25423;45.624;13.790;2023-04-24T07:32:44;15.50;99.90
30973;DHT22;25423;45.624;13.790;2023-04-24T07:35:10;15.40;99.90
30973;DHT22;25423;45.624;13.790;2023-04-24T07:37:36;15.40;99.90
30973;DHT22;25423;45.624;13.790;2023-04-24T07:40:01;15.30;99.90
30973;DHT22;25423;45.624;13.790;2023-04-24T07:42:27;15.20;99.90
30973;DHT22;25423;45.624;13.790;2023-04-24T07:44:53;15.20;99.90
30973;DHT22;25423;45.624;13.790;2023-04-24T07:47:19;15.20;99.90
30973;DHT22;25423;45.624;13.790;2023-04-24T07:49:44;15.20;99.90
30973;DHT22;25423;45.624;13.790;2023-04-24T07:52:10;15.30;99.90
30973;DHT22;25423;45.624;13.790;2023-04-24T07:54:36;15.20;99.90
30973;DHT22;25423;45.624;13.790;2023-04-24T07:57:02;15.30;99.90
30973;DHT22;25423;45.624;13.790;2023-04-24T07:59:28;15.40;99.90
30973;DHT22;25423;45.624;13.790;2023-04-24T08:01:54;15.30;99.90
30973;DHT22;25423;45.624;13.790;2023-04-24T08:04:19;15.30;99.90
30973;DHT22;25423;45.624;13.790;2023-04-24T08:06:47;15.30;99.90
30973;DHT22;25423;45.624;13.790;2023-04-24T08:09:12;15.30;99.90
30973;DHT22;25423;45.624;13.790;2023-04-24T08:11:38;15.20;99.90
30973;DHT22;25423;45.624;13.790;2023-04-24T08:14:04;15.20;99.90
30973;DHT22;25423;45.624;13.790;2023-04-24T08:16:30;15.10;99.90
30973;DHT22;25423;45.624;13.790;2023-04-24T08:18:55;15.10;99.90
30973;DHT22;25423;45.624;13.790;2023-04-24T08:21:21;15.00;99.90
30973;DHT22;25423;45.624;13.790;2023-04-24T08:23:47;15.00;99.90
30973;DHT22;25423;45.624;13.790;2023-04-24T08:26:13;14.90;99.90
30973;DHT22;25423;45.624;13.790;2023-04-24T08:28:38;14.90;99.90
30973;DHT22;25423;45.624;13.790;2023-04-24T08:31:04;14.90;99.90
30973;DHT22;25423;45.624;13.790;2023-04-24T08:33:30;14.90;99.90
30973;DHT22;25423;45.624;13.790;2023-04-24T08:36:01;14.90;99.90
30973;DHT22;25423;45.624;13.790;2023-04-24T08:38:27;14.90;99.90
30973;DHT22;25423;45.624;13.790;2023-04-24T08:40:52;14.90;99.90
30973;DHT22;25423;45.624;13.790;2023-04-24T08:43:18;14.90;99.90
30973;DHT22;25423;45.624;13.790;2023-04-24T08:45:46;14.90;99.90
30973;DHT22;25423;45.624;13.790;2023-04-24T08:48:12;14.90;99.90
30973;DHT22;25423;45.624;13.790;2023-04-24T08:50:38;14.80;99.90
30973;DHT22;25423;45.624;13.790;2023-04-24T08:53:04;14.70;99.90
30973;DHT22;25423;45.624;13.790;2023-04-24T08:55:30;14.70;99.90
30973;DHT22;25423;45.624;13.790;2023-04-24T08:57:56;14.60;99.90
30973;DHT22;25423;45.624;13.790;2023-04-24T09:00:21;14.50;99.90
30973;DHT22;25423;45.624;13.790;2023-04-24T09:02:48;14.40;99.90
30973;DHT22;25423;45.624;13.790;2023-04-24T09:05:15;14.30;99.90
30973;DHT22;25423;45.624;13.790;2023-04-24T09:07:41;14.10;99.90
30973;DHT22;25423;45.624;13.790;2023-04-24T09:10:09;14.10;99.90
30973;DHT22;25423;45.624;13.790;2023-04-24T09:12:36;14.10;99.90
30973;DHT22;25423;45.624;13.790;2023-04-24T09:15:02;14.00;99.90
30973;DHT22;25423;45.624;13.790;2023-04-24T09:17:30;14.00;99.90
30973;DHT22;25423;45.624;13.790;2023-04-24T09:19:55;14.00;99.90
30973;DHT22;25423;45.624;13.790;2023-04-24T09:22:21;14.00;99.90
30973;DHT22;25423;45.624;13.790;2023-04-24T09:24:47;13.90;99.90
30973;DHT22;25423;45.624;13.790;2023-04-24T09:27:13;13.90;99.90
30973;DHT22;25423;45.624;13.790;2023-04-24T09:29:53;13.90;99.90
30973;DHT22;25423;45.624;13.790;2023-04-24T09:32:19;13.90;99.90
30973;DHT22;25423;45.624;13.790;2023-04-24T09:34:47;13.90;99.90
30973;DHT22;25423;45.624;13.790;2023-04-24T09:37:21;13.90;99.90
30973;DHT22;25423;45.624;13.790;2023-04-24T09:40:07;13.90;99.90
30973;DHT22;25423;45.624;13.790;2023-04-24T09:42:32;14.00;99.90
30973;DHT22;25423;45.624;13.790;2023-04-24T09:44:58;14.10;99.90
30973;DHT22;25423;45.624;13.790;2023-04-24T09:47:23;14.10;99.90
30973;DHT22;25423;45.624;13.790;2023-04-24T09:49:49;14.20;99.90
30973;DHT22;25423;45.624;13.790;2023-04-24T09:52:15;14.20;99.90
30973;DHT22;25423;45.624;13.790;2023-04-24T09:54:40;14.30;99.90
30973;DHT22;25423;45.624;13.790;2023-04-24T09:57:09;14.30;99.90
30973;DHT22;25423;45.624;13.790;2023-04-24T09:59:35;14.30;99.90
30973;DHT22;25423;45.624;13.790;2023-04-24T10:02:16;14.20;99.90
30973;DHT22;25423;45.624;13.790;2023-04-24T10:04:53;14.30;99.90
30973;DHT22;25423;45.624;13.790;2023-04-24T10:07:19;14.30;99.90
30973;DHT22;25423;45.624;13.790;2023-04-24T10:09:45;14.30;99.90
30973;DHT22;25423;45.624;13.790;2023-04-24T10:12:10;14.40;99.90
30973;DHT22;25423;45.624;13.790;2023-04-24T10:14:36;14.40;99.90
30973;DHT22;25423;45.624;13.790;2023-04-24T10:17:02;14.50;99.90
30973;DHT22;25423;45.624;13.790;2023-04-24T10:19:28;14.50;99.90
30973;DHT22;25423;45.624;13.790;2023-04-24T10:21:54;14.50;99.90
30973;DHT22;25423;45.624;13.790;2023-04-24T10:24:21;14.60;99.90
30973;DHT22;25423;45.624;13.790;2023-04-24T10:26:47;14.60;99.90
30973;DHT22;25423;45.624;13.790;2023-04-24T10:29:14;14.70;99.90
30973;DHT22;25423;45.624;13.790;2023-04-24T10:31:40;14.70;99.90
30973;DHT22;25423;45.624;13.790;2023-04-24T10:34:07;14.80;99.90
30973;DHT22;25423;45.624;13.790;2023-04-24T10:36:34;14.80;99.90
30973;DHT22;25423;45.624;13.790;2023-04-24T10:39:01;14.90;99.90
30973;DHT22;25423;45.624;13.790;2023-04-24T10:41:27;15.00;99.90
30973;DHT22;25423;45.624;13.790;2023-04-24T10:44:03;15.00;99.90
30973;DHT22;25423;45.624;13.790;2023-04-24T10:46:30;15.00;99.90
30973;DHT22;25423;45.624;13.790;2023-04-24T10:48:56;15.00;99.90
30973;DHT22;25423;45.624;13.790;2023-04-24T10:51:22;15.00;99.90
30973;DHT22;25423;45.624;13.790;2023-04-24T10:53:49;14.90;99.90
30973;DHT22;25423;45.624;13.790;2023-04-24T10:56:15;14.90;99.90
30973;DHT22;25423;45.624;13.790;2023-04-24T10:58:45;14.80;99.90
30973;DHT22;25423;45.624;13.790;2023-04-24T11:01:28;14.70;99.90
30973;DHT22;25423;45.624;13.790;2023-04-24T11:03:54;14.70;99.90
30973;DHT22;25423;45.624;13.790;2023-04-24T11:06:28;14.70;99.90
30973;DHT22;25423;45.624;13.790;2023-04-24T11:08:58;14.80;99.90
30973;DHT22;25423;45.624;13.790;2023-04-24T11:11:28;14.70;99.90
30973;DHT22;25423;45.624;13.790;2023-04-24T11:21:27;14.60;99.90
30973;DHT22;25423;45.624;13.790;2023-04-24T11:23:56;14.60;99.90
30973;DHT22;25423;45.624;13.790;2023-04-24T11:26:22;14.50;99.90
30973;DHT22;25423;45.624;13.790;2023-04-24T11:28:55;14.50;99.90
30973;DHT22;25423;45.624;13.790;2023-04-24T11:31:35;14.50;99.90
30973;DHT22;25423;45.624;13.790;2023-04-24T11:34:12;14.50;99.90
30973;DHT22;25423;45.624;13.790;2023-04-24T11:36:39;14.60;99.90
30973;DHT22;25423;45.624;13.790;2023-04-24T11:39:05;14.50;99.90
30973;DHT22;25423;45.624;13.790;2023-04-24T11:41:32;14.40;99.90
30973;DHT22;25423;45.624;13.790;2023-04-24T11:43:58;14.50;99.90
30973;DHT22;25423;45.624;13.790;2023-04-24T11:46:27;14.40;99.90
30973;DHT22;25423;45.624;13.790;2023-04-24T11:48:52;14.40;99.90
30973;DHT22;25423;45.624;13.790;2023-04-24T11:51:18;14.40;99.90
30973;DHT22;25423;45.624;13.790;2023-04-24T11:53:44;14.40;99.90
30973;DHT22;25423;45.624;13.790;2023-04-24T11:56:09;14.50;99.90
30973;DHT22;25423;45.624;13.790;2023-04-24T11:58:35;14.50;99.90
30973;DHT22;25423;45.624;13.790;2023-04-24T12:01:01;14.40;99.90
30973;DHT22;25423;45.624;13.790;2023-04-24T12:03:27;14.40;99.90
30973;DHT22;25423;45.624;13.790;2023-04-24T12:05:53;14.40;99.90
30973;DHT22;25423;45.624;13.790;2023-04-24T12:08:29;14.40;99.90
30973;DHT22;25423;45.624;13.790;2023-04-24T12:10:55;14.40;99.90
30973;DHT22;25423;45.624;13.790;2023-04-24T12:13:21;14.40;99.90
30973;DHT22;25423;45.624;13.790;2023-04-24T12:15:46;14.30;99.90
30973;DHT22;25423;45.624;13.790;2023-04-24T12:18:12;14.30;99.90
30973;DHT22;25423;45.624;13.790;2023-04-24T12:20:39;14.20;99.90
30973;DHT22;25423;45.624;13.790;2023-04-24T12:23:05;14.20;99.90
30973;DHT22;25423;45.624;13.790;2023-04-24T12:25:32;14.20;99.90
30973;DHT22;25423;45.624;13.790;2023-04-24T12:30:30;14.10;99.90
30973;DHT22;25423;45.624;13.790;2023-04-24T12:32:59;14.10;99.90
30973;DHT22;25423;45.624;13.790;2023-04-24T12:35:27;14.10;99.90
30973;DHT22;25423;45.624;13.790;2023-04-24T12:37:53;14.10;99.90
30973;DHT22;25423;45.624;13.790;2023-04-24T12:40:19;14.00;99.90
30973;DHT22;25423;45.624;13.790;2023-04-24T12:42:46;14.00;99.90
30973;DHT22;25423;45.624;13.790;2023-04-24T12:45:12;14.00;99.90
30973;DHT22;25423;45.624;13.790;2023-04-24T12:47:38;13.90;99.90
30973;DHT22;25423;45.624;13.790;2023-04-24T12:50:04;13.90;99.90
30973;DHT22;25423;45.624;13.790;2023-04-24T12:52:31;14.00;99.90
30973;DHT22;25423;45.624;13.790;2023-04-24T12:54:58;14.00;99.90
30973;DHT22;25423;45.624;13.790;2023-04-24T12:57:24;13.90;99.90
30973;DHT22;25423;45.624;13.790;2023-04-24T12:59:52;13.90;99.90
30973;DHT22;25423;45.624;13.790;2023-04-24T13:02:17;13.80;99.90
30973;DHT22;25423;45.624;13.790;2023-04-24T13:04:44;13.80;99.90
30973;DHT22;25423;45.624;13.790;2023-04-24T13:07:10;13.80;99.90
30973;DHT22;25423;45.624;13.790;2023-04-24T13:09:35;13.90;99.90
30973;DHT22;25423;45.624;13.790;2023-04-24T13:12:01;14.00;99.90
30973;DHT22;25423;45.624;13.790;2023-04-24T13:14:27;14.10;99.90
30973;DHT22;25423;45.624;13.790;2023-04-24T13:16:52;14.10;99.90
30973;DHT22;25423;45.624;13.790;2023-04-24T13:19:18;14.10;99.90
30973;DHT22;25423;45.624;13.790;2023-04-24T13:21:44;14.00;99.90
30973;DHT22;25423;45.624;13.790;2023-04-24T13:24:09;13.90;99.90
30973;DHT22;25423;45.624;13.790;2023-04-24T13:26:35;13.80;99.90
30973;DHT22;25423;45.624;13.790;2023-04-24T13:29:00;13.80;99.90
30973;DHT22;25423;45.624;13.790;2023-04-24T13:31:26;13.70;99.90
30973;DHT22;25423;45.624;13.790;2023-04-24T13:33:52;13.70;99.90
30973;DHT22;25423;45.624;13.790;2023-04-24T13:36:17;13.70;99.90
30973;DHT22;25423;45.624;13.790;2023-04-24T13:38:46;13.70;99.90
30973;DHT22;25423;45.624;13.790;2023-04-24T13:41:12;13.80;99.90
30973;DHT22;25423;45.624;13.790;2023-04-24T13:43:37;13.80;99.90
30973;DHT22;25423;45.624;13.790;2023-04-24T13:46:03;13.80;99.90
30973;DHT22;25423;45.624;13.790;2023-04-24T13:48:29;13.70;99.90
30973;DHT22;25423;45.624;13.790;2023-04-24T13:50:55;13.80;99.90
30973;DHT22;25423;45.624;13.790;2023-04-24T13:53:21;13.90;99.90
30973;DHT22;25423;45.624;13.790;2023-04-24T13:55:47;13.90;99.90
30973;DHT22;25423;45.624;13.790;2023-04-24T13:58:12;14.00;99.90
30973;DHT22;25423;45.624;13.790;2023-04-24T14:00:39;14.10;99.90
30973;DHT22;25423;45.624;13.790;2023-04-24T14:03:04;14.20;99.90
30973;DHT22;25423;45.624;13.790;2023-04-24T14:05:30;14.30;99.90
30973;DHT22;25423;45.624;13.790;2023-04-24T14:07:56;14.40;99.90
30973;DHT22;25423;45.624;13.790;2023-04-24T14:10:21;14.50;99.90
30973;DHT22;25423;45.624;13.790;2023-04-24T14:12:47;14.50;99.90
30973;DHT22;25423;45.624;13.790;2023-04-24T14:15:13;14.50;99.90
30973;DHT22;25423;45.624;13.790;2023-04-24T14:17:39;14.50;99.90
30973;DHT22;25423;45.624;13.790;2023-04-24T14:20:05;14.40;99.90
30973;DHT22;25423;45.624;13.790;2023-04-24T14:22:30;14.20;99.90
30973;DHT22;25423;45.624;13.790;2023-04-24T14:24:56;14.00;99.90
30973;DHT22;25423;45.624;13.790;2023-04-24T14:27:23;13.90;99.90
30973;DHT22;25423;45.624;13.790;2023-04-24T14:29:49;14.00;99.90
30973;DHT22;25423;45.624;13.790;2023-04-24T14:32:15;14.00;99.90
30973;DHT22;25423;45.624;13.790;2023-04-24T14:34:41;14.00;99.90
30973;DHT22;25423;45.624;13.790;2023-04-24T14:37:07;14.00;99.90
30973;DHT22;25423;45.624;13.790;2023-04-24T14:39:32;14.10;99.90
30973;DHT22;25423;45.624;13.790;2023-04-24T14:41:58;13.90;99.90
30973;DHT22;25423;45.624;13.790;2023-04-24T14:44:24;13.90;99.90
30973;DHT22;25423;45.624;13.790;2023-04-24T14:46:50;13.70;99.90
30973;DHT22;25423;45.624;13.790;2023-04-24T14:49:15;13.70;99.90
30973;DHT22;25423;45.624;13.790;2023-04-24T14:51:41;13.60;99.90
30973;DHT22;25423;45.624;13.790;2023-04-24T14:54:08;13.60;99.90
30973;DHT22;25423;45.624;13.790;2023-04-24T14:56:33;13.50;99.90
30973;DHT22;25423;45.624;13.790;2023-04-24T14:58:59;13.50;99.90
30973;DHT22;25423;45.624;13.790;2023-04-24T15:01:24;13.50;99.90
30973;DHT22;25423;45.624;13.790;2023-04-24T15:03:50;13.50;99.90
30973;DHT22;25423;45.624;13.790;2023-04-24T15:06:16;13.50;99.90
30973;DHT22;25423;45.624;13.790;2023-04-24T15:08:41;13.50;99.90
30973;DHT22;25423;45.624;13.790;2023-04-24T15:11:08;13.50;99.90
30973;DHT22;25423;45.624;13.790;2023-04-24T15:13:34;13.60;99.90
30973;DHT22;25423;45.624;13.790;2023-04-24T15:15:59;13.70;99.90
30973;DHT22;25423;45.624;13.790;2023-04-24T15:18:25;13.60;99.90